Time;durP1;ratioP1;P1;durP2;ratioP2;P2;SDS_P1;SDS_P2;PMS_P1;PMS_P2;Temp;Humidity;BMP_temperature;BMP_pressure;BME280_temperature;BME280_humidity;BME280_pressure;Samples;Min_cycle;Max_cycle;Signal;HPM_P1;HPM_P2
2022/11/15 00:01:42;;;;;;;69.53;41.20;;;9.80;94.00;;;;;;5026990;28;20370;-67
2022/11/15 00:04:28;;;;;;;74.77;43.07;;;9.80;94.10;;;;;;5022344;28;20233;-67
2022/11/15 00:07:14;;;;;;;71.73;41.37;;;9.80;94.20;;;;;;5022186;28;20223;-67
2022/11/15 00:10:19;;;;;;;76.23;43.87;;;9.80;94.20;;;;;;5024304;28;20207;-67
2022/11/15 00:13:14;;;;;;;75.07;44.30;;;9.80;94.30;;;;;;5024283;28;20214;-67
2022/11/15 00:16:01;;;;;;;75.10;43.43;;;9.80;94.30;;;;;;5024117;28;20215;-67
2022/11/15 00:18:46;;;;;;;78.77;44.50;;;9.90;94.30;;;;;;5023980;28;20212;-67
2022/11/15 00:21:35;;;;;;;79.63;42.93;;;9.80;94.20;;;;;;5024998;28;20686;-67
2022/11/15 00:24:21;;;;;;;74.00;41.93;;;9.80;94.20;;;;;;5025510;28;20568;-66
2022/11/15 00:27:06;;;;;;;77.17;42.97;;;9.80;94.20;;;;;;5024382;28;20217;-66
2022/11/15 00:29:53;;;;;;;73.10;41.13;;;9.80;94.20;;;;;;5023021;28;20258;-66
2022/11/15 00:32:38;;;;;;;73.87;41.10;;;9.70;94.20;;;;;;5024206;28;20208;-66
2022/11/15 00:35:24;;;;;;;68.07;39.77;;;9.70;94.20;;;;;;5023040;28;20293;-66
2022/11/15 00:38:09;;;;;;;72.23;39.77;;;9.70;94.20;;;;;;5020920;28;20214;-66
2022/11/15 00:40:55;;;;;;;66.57;40.93;;;9.70;94.20;;;;;;5021760;28;20658;-66
2022/11/15 00:43:43;;;;;;;73.60;38.90;;;9.70;94.10;;;;;;5024721;28;20686;-66
2022/11/15 00:46:29;;;;;;;65.07;38.90;;;9.70;94.10;;;;;;5023520;28;20665;-66
2022/11/15 00:49:14;;;;;;;64.13;38.03;;;9.60;94.00;;;;;;5020801;28;20225;-67
2022/11/15 00:52:00;;;;;;;65.83;37.90;;;9.60;94.00;;;;;;5025387;28;20219;-67
2022/11/15 00:54:45;;;;;;;67.73;39.40;;;9.60;93.90;;;;;;5022960;28;20281;-67
2022/11/15 00:57:31;;;;;;;65.03;39.40;;;9.60;93.90;;;;;;5023109;28;20214;-67
2022/11/15 01:00:17;;;;;;;62.63;35.40;;;9.50;93.80;;;;;;5022316;28;20221;-67
2022/11/15 01:03:02;;;;;;;62.43;37.83;;;9.50;93.80;;;;;;5020943;28;20221;-67
2022/11/15 01:05:48;;;;;;;63.80;35.90;;;9.50;93.80;;;;;;5023679;28;20221;-67
2022/11/15 01:08:34;;;;;;;61.97;36.03;;;9.40;93.70;;;;;;5036516;28;20211;-67
2022/11/15 01:11:19;;;;;;;65.00;36.40;;;9.40;93.70;;;;;;5027571;28;20349;-67
2022/11/15 01:14:05;;;;;;;66.17;37.53;;;9.40;93.70;;;;;;5023064;28;20293;-67
2022/11/15 01:16:50;;;;;;;58.73;35.27;;;9.30;93.60;;;;;;5023409;28;20234;-67
2022/11/15 01:19:36;;;;;;;64.83;37.77;;;9.30;93.70;;;;;;5023152;28;20208;-67
2022/11/15 01:22:22;;;;;;;63.00;36.30;;;9.30;93.60;;;;;;5024164;28;20323;-67
2022/11/15 01:25:08;;;;;;;62.23;35.60;;;9.20;93.60;;;;;;5020992;28;20226;-67
2022/11/15 01:27:53;;;;;;;62.53;36.30;;;9.20;93.60;;;;;;5023101;28;20202;-67
2022/11/15 01:30:39;;;;;;;60.00;36.27;;;9.20;93.60;;;;;;5025237;28;20299;-67
2022/11/15 01:33:25;;;;;;;57.57;36.40;;;9.10;93.70;;;;;;5023003;28;20208;-67
2022/11/15 01:36:17;;;;;;;63.37;35.03;;;9.10;93.70;;;;;;5020934;28;20215;-67
2022/11/15 01:39:03;;;;;;;64.07;34.43;;;9.10;93.80;;;;;;5022951;28;20298;-67
2022/11/15 01:41:49;;;;;;;55.70;32.97;;;9.10;93.80;;;;;;5024131;28;20644;-67
2022/11/15 01:44:35;;;;;;;56.60;34.03;;;9.10;93.90;;;;;;5022105;28;20269;-67
2022/11/15 01:47:28;;;;;;;65.87;35.27;;;9.10;93.90;;;;;;5022054;28;20262;-67
2022/11/15 01:50:18;;;;;;;60.40;33.93;;;9.10;93.90;;;;;;5020323;28;20543;-67
2022/11/15 01:53:04;;;;;;;56.77;33.03;;;9.20;94.00;;;;;;5022454;28;20212;-67
2022/11/15 01:55:49;;;;;;;54.67;32.43;;;9.10;93.90;;;;;;5024743;28;20274;-67
2022/11/15 01:58:36;;;;;;;57.60;33.37;;;9.10;93.90;;;;;;5022418;28;20647;-67
2022/11/15 02:01:23;;;;;;;56.83;33.93;;;9.20;93.90;;;;;;5021241;28;20210;-67
2022/11/15 02:04:32;;;;;;;56.53;33.10;;;9.20;93.90;;;;;;5023329;28;20222;-66
2022/11/15 02:07:20;;;;;;;61.67;33.20;;;9.20;94.00;;;;;;5022446;28;20740;-66
2022/11/15 02:10:12;;;;;;;61.03;33.17;;;9.20;94.00;;;;;;5021050;28;20212;-67
2022/11/15 02:13:00;;;;;;;54.47;33.50;;;9.20;94.00;;;;;;5021278;28;20270;-67
2022/11/15 02:16:24;;;;;;;62.77;34.13;;;9.20;94.00;;;;;;5018644;28;20216;-66
2022/11/15 02:19:37;;;;;;;58.63;34.77;;;9.10;94.00;;;;;;5022224;28;20543;-66
2022/11/15 02:22:35;;;;;;;59.20;33.93;;;9.20;94.00;;;;;;5021017;28;20620;-66
2022/11/15 02:25:23;;;;;;;58.63;32.53;;;9.20;94.00;;;;;;5023041;28;20229;-66
2022/11/15 02:28:30;;;;;;;53.77;32.57;;;9.20;94.00;;;;;;5023956;28;20649;-66
2022/11/15 02:31:25;;;;;;;53.03;31.43;;;9.20;94.00;;;;;;5020192;28;20648;-66
2022/11/15 02:34:48;;;;;;;55.73;30.37;;;9.20;94.00;;;;;;5024922;28;20351;-67
2022/11/15 02:37:47;;;;;;;48.13;29.50;;;9.20;94.10;;;;;;5022016;28;20532;-66
2022/11/15 02:40:45;;;;;;;44.47;28.07;;;9.20;94.00;;;;;;5017922;28;20229;-67
2022/11/15 02:43:58;;;;;;;50.67;28.63;;;9.20;94.00;;;;;;5018994;28;20215;-67
2022/11/15 02:50:01;;;;;;;47.30;27.77;;;9.20;94.00;;;;;;5019721;28;20226;-67
2022/11/15 02:52:49;;;;;;;45.77;28.03;;;9.10;94.00;;;;;;5022167;28;20554;-67
2022/11/15 02:55:38;;;;;;;43.77;26.73;;;9.10;94.00;;;;;;5018343;28;20214;-67
2022/11/15 02:58:54;;;;;;;48.37;29.43;;;9.10;94.00;;;;;;5021399;28;20342;-67
2022/11/15 03:02:12;;;;;;;44.47;27.73;;;9.10;93.90;;;;;;5021708;28;20258;-67
2022/11/15 03:05:20;;;;;;;43.50;26.10;;;9.10;93.80;;;;;;5003385;28;20234;-67
2022/11/15 03:08:32;;;;;;;48.40;28.73;;;9.00;93.80;;;;;;5021087;28;20240;-67
2022/11/15 03:11:20;;;;;;;43.07;26.87;;;9.00;93.70;;;;;;5023739;28;20286;-67
2022/11/15 03:14:23;;;;;;;43.47;26.73;;;9.00;93.80;;;;;;5019616;28;20208;-67
2022/11/15 03:17:32;;;;;;;46.67;27.13;;;9.00;93.70;;;;;;5018866;28;20205;-67
2022/11/15 03:20:19;;;;;;;47.90;27.10;;;8.90;93.60;;;;;;5017329;28;20668;-67
2022/11/15 03:23:08;;;;;;;42.70;26.77;;;8.90;93.50;;;;;;5024515;28;20252;-67
2022/11/15 03:25:56;;;;;;;41.97;25.37;;;8.80;93.50;;;;;;5022790;28;20301;-67
2022/11/15 03:28:44;;;;;;;41.80;26.90;;;8.80;93.50;;;;;;5024654;28;20321;-67
2022/11/15 03:31:46;;;;;;;45.17;27.23;;;8.80;93.60;;;;;;5026824;28;20222;-67
2022/11/15 03:34:44;;;;;;;42.70;25.43;;;8.80;93.50;;;;;;5026744;28;20253;-67
2022/11/15 03:38:11;;;;;;;45.57;27.63;;;8.80;93.50;;;;;;5023552;28;20671;-67
2022/11/15 03:41:01;;;;;;;42.90;26.33;;;8.70;93.50;;;;;;5020481;28;20307;-67
2022/11/15 03:44:16;;;;;;;44.70;26.43;;;8.70;93.40;;;;;;5024841;28;20211;-67
2022/11/15 03:47:16;;;;;;;47.53;25.63;;;8.60;93.40;;;;;;5025138;28;20201;-67
2022/11/15 03:50:22;;;;;;;42.40;24.73;;;8.60;93.40;;;;;;5022096;28;20214;-67
2022/11/15 03:53:09;;;;;;;45.20;26.23;;;8.60;93.40;;;;;;5021739;28;20375;-67
2022/11/15 03:55:54;;;;;;;41.57;25.30;;;8.50;93.30;;;;;;5025736;28;20651;-67
2022/11/15 03:58:40;;;;;;;39.77;25.67;;;8.50;93.30;;;;;;5024213;28;20274;-67
2022/11/15 04:01:25;;;;;;;38.07;24.30;;;8.40;93.30;;;;;;5026462;28;20559;-67
2022/11/15 04:04:11;;;;;;;40.57;26.00;;;8.40;93.30;;;;;;5022788;28;20331;-67
2022/11/15 04:06:57;;;;;;;40.73;25.87;;;8.40;93.30;;;;;;5024635;28;20262;-67
2022/11/15 04:12:47;;;;;;;41.67;25.30;;;8.40;93.40;;;;;;5020682;28;20656;-67
2022/11/15 04:15:33;;;;;;;38.17;24.03;;;8.30;93.50;;;;;;5024620;28;20234;-67
2022/11/15 04:18:19;;;;;;;46.27;25.73;;;8.30;93.50;;;;;;5024553;28;20207;-67
2022/11/15 04:24:14;;;;;;;45.83;25.53;;;8.30;93.40;;;;;;5022875;28;20305;-67
2022/11/15 04:26:59;;;;;;;41.27;25.57;;;8.30;93.40;;;;;;5023470;28;20211;-67
2022/11/15 04:29:45;;;;;;;42.33;25.77;;;8.30;93.40;;;;;;5023323;28;20221;-67
2022/11/15 04:32:30;;;;;;;41.83;25.47;;;8.30;93.40;;;;;;5022669;28;20215;-67
2022/11/15 04:35:16;;;;;;;46.50;26.43;;;8.30;93.40;;;;;;5023871;28;20206;-67
2022/11/15 04:38:04;;;;;;;43.20;23.27;;;8.30;93.40;;;;;;5020167;28;20345;-67
2022/11/15 04:40:49;;;;;;;39.53;24.60;;;8.30;93.40;;;;;;5023920;28;20645;-67
2022/11/15 04:43:35;;;;;;;42.07;23.97;;;8.30;93.40;;;;;;5023031;28;20559;-67
2022/11/15 04:46:23;;;;;;;40.53;23.50;;;8.30;93.40;;;;;;5023498;28;20245;-67
2022/11/15 04:49:08;;;;;;;43.60;23.37;;;8.30;93.30;;;;;;5020906;28;20207;-67
2022/11/15 04:51:54;;;;;;;38.93;23.20;;;8.30;93.30;;;;;;5022602;28;20206;-67
2022/11/15 04:54:41;;;;;;;37.57;22.47;;;8.30;93.40;;;;;;5023094;28;20214;-67
2022/11/15 04:57:27;;;;;;;37.80;23.60;;;8.30;93.30;;;;;;5022157;28;20231;-67
2022/11/15 05:00:15;;;;;;;40.77;24.10;;;8.30;93.30;;;;;;5019755;28;20286;-67
2022/11/15 05:06:05;;;;;;;43.57;25.97;;;8.30;93.40;;;;;;5022977;28;20263;-67
2022/11/15 05:08:50;;;;;;;43.00;24.90;;;8.40;93.50;;;;;;5021889;28;20309;-67
2022/11/15 05:11:36;;;;;;;41.37;25.70;;;8.50;93.70;;;;;;5021165;28;20279;-67
2022/11/15 05:14:21;;;;;;;46.07;25.80;;;8.60;93.80;;;;;;5023464;28;20285;-67
2022/11/15 05:17:07;;;;;;;36.87;22.90;;;8.70;93.90;;;;;;5021034;28;20220;-67
2022/11/15 05:19:52;;;;;;;32.50;20.47;;;8.80;93.90;;;;;;5023107;28;20680;-67
2022/11/15 05:22:38;;;;;;;30.10;20.47;;;8.90;93.90;;;;;;5021918;28;20575;-67
2022/11/15 05:25:24;;;;;;;29.20;19.63;;;9.00;93.90;;;;;;5020926;28;20270;-67
2022/11/15 05:28:09;;;;;;;30.27;19.97;;;9.00;93.90;;;;;;5025689;28;20293;-67
2022/11/15 05:31:05;;;;;;;33.13;18.70;;;9.10;93.90;;;;;;5023929;28;20201;-67
2022/11/15 05:33:51;;;;;;;32.73;20.47;;;9.10;93.80;;;;;;5023434;28;20552;-67
2022/11/15 05:36:41;;;;;;;29.93;19.20;;;9.20;93.80;;;;;;5024290;28;20682;-67
2022/11/15 05:39:26;;;;;;;28.73;19.40;;;9.30;93.80;;;;;;5020787;28;20601;-67
2022/11/15 05:42:16;;;;;;;32.70;19.20;;;9.30;93.80;;;;;;5018897;28;20207;-67
2022/11/15 05:45:05;;;;;;;32.07;20.60;;;9.40;93.70;;;;;;5019370;28;20223;-67
2022/11/15 05:47:54;;;;;;;27.17;20.07;;;9.40;93.70;;;;;;5023825;28;20214;-67
2022/11/15 05:50:43;;;;;;;30.97;20.70;;;9.50;93.60;;;;;;5020577;28;20676;-68
2022/11/15 05:53:29;;;;;;;33.23;20.60;;;9.50;93.60;;;;;;5022300;28;20219;-67
2022/11/15 05:56:15;;;;;;;34.23;21.33;;;9.50;93.50;;;;;;5022620;28;20306;-67
2022/11/15 05:59:02;;;;;;;30.23;19.83;;;9.60;93.50;;;;;;5022536;28;20237;-67
2022/11/15 06:01:47;;;;;;;32.93;20.67;;;9.60;93.40;;;;;;5020155;28;20209;-67
2022/11/15 06:04:33;;;;;;;36.07;22.13;;;9.60;93.40;;;;;;5017283;28;20244;-67
2022/11/15 06:07:18;;;;;;;35.47;22.37;;;9.60;93.40;;;;;;5021755;28;20323;-67
2022/11/15 06:10:04;;;;;;;34.03;22.47;;;9.70;93.40;;;;;;5023392;28;20207;-67
2022/11/15 06:13:01;;;;;;;35.93;21.73;;;9.70;93.30;;;;;;5019579;28;20195;-67
2022/11/15 06:15:46;;;;;;;37.70;23.07;;;9.70;93.40;;;;;;5022153;28;20209;-67
2022/11/15 06:18:33;;;;;;;38.90;22.20;;;9.80;93.40;;;;;;5021769;28;20207;-67
2022/11/15 06:21:19;;;;;;;40.37;23.10;;;9.80;93.40;;;;;;5019361;28;20220;-67
2022/11/15 06:24:05;;;;;;;37.57;22.20;;;9.90;93.40;;;;;;5022984;28;20313;-66
2022/11/15 06:26:52;;;;;;;39.47;24.83;;;9.90;93.30;;;;;;5019623;28;20658;-66
2022/11/15 06:29:38;;;;;;;38.37;23.60;;;9.90;93.30;;;;;;5021856;28;20262;-66
2022/11/15 06:32:23;;;;;;;40.33;24.83;;;9.90;93.30;;;;;;5021639;28;20317;-66
2022/11/15 06:35:09;;;;;;;38.40;24.70;;;10.00;93.20;;;;;;5022894;28;20278;-66
2022/11/15 06:37:55;;;;;;;40.30;25.13;;;10.00;93.20;;;;;;5017854;28;20231;-66
2022/11/15 06:40:41;;;;;;;36.77;23.73;;;10.10;93.40;;;;;;5019813;28;20226;-66
2022/11/15 06:43:26;;;;;;;37.23;23.67;;;10.10;93.20;;;;;;5022970;28;20202;-65
2022/11/15 06:46:12;;;;;;;41.00;23.97;;;10.10;93.10;;;;;;5021439;28;20250;-66
2022/11/15 06:48:57;;;;;;;41.10;24.43;;;10.10;93.10;;;;;;5019708;28;20705;-66
2022/11/15 06:51:42;;;;;;;37.83;23.73;;;10.10;93.10;;;;;;5018555;28;20335;-66
2022/11/15 06:54:28;;;;;;;40.43;24.47;;;10.20;93.10;;;;;;5021342;28;20215;-66
2022/11/15 06:57:14;;;;;;;41.33;25.37;;;10.10;93.00;;;;;;5023806;28;20202;-66
2022/11/15 06:59:59;;;;;;;39.90;24.80;;;10.10;93.00;;;;;;5018435;28;20204;-66
2022/11/15 07:02:44;;;;;;;37.90;24.03;;;10.20;92.90;;;;;;5021665;28;20218;-66
2022/11/15 07:05:30;;;;;;;35.43;22.23;;;10.10;92.80;;;;;;5020887;28;20231;-66
2022/11/15 07:08:16;;;;;;;39.60;23.50;;;10.10;92.80;;;;;;5022725;28;20656;-66
2022/11/15 07:11:04;;;;;;;37.33;24.67;;;10.20;92.80;;;;;;5015840;28;20268;-66
2022/11/15 07:13:49;;;;;;;40.37;24.47;;;10.10;92.70;;;;;;5019129;28;20238;-66
2022/11/15 07:16:36;;;;;;;39.90;23.87;;;10.20;92.70;;;;;;5023122;28;20321;-65
2022/11/15 07:19:22;;;;;;;41.33;24.90;;;10.20;92.70;;;;;;5023015;28;20230;-65
2022/11/15 07:22:07;;;;;;;36.10;21.90;;;10.20;92.70;;;;;;5022777;28;20708;-67
2022/11/15 07:24:53;;;;;;;31.53;21.73;;;10.20;92.60;;;;;;5017469;28;20224;-66
2022/11/15 07:27:39;;;;;;;38.13;23.30;;;10.20;92.60;;;;;;5018419;28;20655;-65
2022/11/15 07:30:26;;;;;;;38.00;23.20;;;10.20;92.70;;;;;;5020051;28;20223;-65
2022/11/15 07:33:11;;;;;;;40.30;23.73;;;10.20;92.60;;;;;;5017916;28;20333;-65
2022/11/15 07:36:01;;;;;;;42.07;23.53;;;10.20;92.70;;;;;;5020634;28;20209;-66
2022/11/15 07:38:47;;;;;;;39.17;24.10;;;10.20;92.70;;;;;;5020580;28;20225;-66
2022/11/15 07:41:32;;;;;;;43.40;24.47;;;10.30;92.80;;;;;;5022913;28;20292;-65
2022/11/15 07:44:18;;;;;;;40.20;24.37;;;10.30;92.80;;;;;;5019883;28;20218;-65
2022/11/15 07:47:04;;;;;;;38.83;23.80;;;10.30;92.70;;;;;;5022009;28;20271;-66
2022/11/15 07:49:49;;;;;;;37.43;23.87;;;10.30;92.60;;;;;;5019701;28;20314;-65
2022/11/15 07:52:34;;;;;;;39.40;22.07;;;10.40;92.60;;;;;;5022107;28;20291;-65
2022/11/15 07:55:20;;;;;;;38.53;22.63;;;10.40;92.60;;;;;;5018913;28;20299;-65
2022/11/15 07:58:11;;;;;;;35.30;22.97;;;10.40;92.50;;;;;;5021592;28;20558;-65
2022/11/15 08:00:56;;;;;;;37.37;22.33;;;10.40;92.50;;;;;;5017793;28;20587;-65
2022/11/15 08:03:42;;;;;;;38.00;23.50;;;10.50;92.60;;;;;;5022433;28;20213;-65
2022/11/15 08:06:28;;;;;;;38.10;24.37;;;10.50;92.50;;;;;;5019069;28;20348;-65
2022/11/15 08:09:13;;;;;;;41.73;24.73;;;10.60;92.50;;;;;;5022995;28;20213;-65
2022/11/15 08:11:59;;;;;;;41.27;25.27;;;10.60;92.50;;;;;;5020944;28;20223;-66
2022/11/15 08:14:44;;;;;;;38.77;24.67;;;10.70;92.50;;;;;;5026341;28;20232;-65
2022/11/15 08:17:32;;;;;;;37.80;23.87;;;10.70;92.40;;;;;;5024165;28;20227;-66
2022/11/15 08:20:19;;;;;;;47.17;24.20;;;10.70;92.30;;;;;;5023171;28;20666;-66
2022/11/15 08:23:05;;;;;;;37.37;22.57;;;10.80;92.30;;;;;;5022954;28;20237;-66
2022/11/15 08:25:51;;;;;;;38.13;24.03;;;10.80;92.30;;;;;;5027616;28;20247;-66
2022/11/15 08:28:36;;;;;;;38.27;23.83;;;10.90;92.30;;;;;;5023952;28;20644;-66
2022/11/15 08:31:22;;;;;;;34.53;23.13;;;10.90;92.20;;;;;;5023040;28;20645;-65
2022/11/15 08:34:08;;;;;;;39.17;23.93;;;11.00;92.20;;;;;;5022570;28;20204;-65
2022/11/15 08:36:53;;;;;;;38.87;23.43;;;11.00;92.20;;;;;;5024935;28;20214;-65
2022/11/15 08:39:38;;;;;;;34.57;22.00;;;11.10;92.20;;;;;;5023643;28;20666;-65
2022/11/15 08:42:23;;;;;;;35.40;23.13;;;11.10;92.10;;;;;;5037439;28;20316;-66
2022/11/15 08:45:09;;;;;;;37.33;22.90;;;11.10;92.00;;;;;;5028300;28;20243;-65
2022/11/15 08:47:55;;;;;;;40.90;24.80;;;11.10;91.90;;;;;;5023229;28;20210;-65
2022/11/15 08:50:43;;;;;;;38.57;23.43;;;11.10;91.80;;;;;;5023553;28;20212;-65
2022/11/15 08:53:28;;;;;;;34.10;22.70;;;11.20;91.80;;;;;;5020378;28;20270;-65
2022/11/15 08:56:15;;;;;;;36.47;23.30;;;11.20;91.80;;;;;;5028445;28;20660;-65
2022/11/15 08:59:00;;;;;;;41.57;24.87;;;11.20;91.80;;;;;;5024557;28;20227;-65
2022/11/15 09:01:46;;;;;;;36.93;22.77;;;11.20;91.80;;;;;;5022217;28;20349;-66
2022/11/15 09:04:32;;;;;;;36.20;24.80;;;11.20;91.80;;;;;;5020488;28;20268;-65
2022/11/15 09:07:18;;;;;;;37.13;23.93;;;11.30;91.90;;;;;;5023024;28;20293;-65
2022/11/15 09:10:04;;;;;;;40.80;24.40;;;11.30;92.00;;;;;;5022186;28;20244;-65
2022/11/15 09:12:50;;;;;;;34.20;22.70;;;11.30;92.00;;;;;;5023725;28;20201;-65
2022/11/15 09:15:35;;;;;;;36.37;24.03;;;11.40;91.90;;;;;;5021040;28;20216;-65
2022/11/15 09:18:22;;;;;;;37.20;25.50;;;11.40;91.80;;;;;;5023900;28;20259;-66
2022/11/15 09:21:09;;;;;;;41.60;26.57;;;11.50;91.80;;;;;;5025033;28;20315;-66
2022/11/15 09:23:54;;;;;;;42.83;25.43;;;11.60;91.90;;;;;;5022451;28;20251;-65
2022/11/15 09:26:40;;;;;;;45.10;26.87;;;11.60;91.80;;;;;;5023592;28;20231;-65
2022/11/15 09:29:26;;;;;;;45.43;26.50;;;11.70;91.80;;;;;;5018313;28;20233;-66
2022/11/15 09:32:11;;;;;;;44.50;26.50;;;11.80;91.80;;;;;;5023015;28;20209;-65
2022/11/15 09:34:57;;;;;;;45.03;26.73;;;11.90;91.80;;;;;;5024214;28;20225;-65
2022/11/15 09:37:43;;;;;;;42.67;27.80;;;12.00;91.70;;;;;;5020663;28;20345;-65
2022/11/15 09:40:30;;;;;;;45.03;27.13;;;12.10;91.60;;;;;;5021805;28;20230;-66
2022/11/15 09:43:28;;;;;;;41.83;26.83;;;12.20;91.60;;;;;;5024887;28;20365;-66
2022/11/15 09:46:24;;;;;;;41.53;25.60;;;12.20;91.40;;;;;;5020662;28;20227;-65
2022/11/15 09:49:11;;;;;;;45.70;27.47;;;12.20;91.40;;;;;;5020302;28;20206;-66
2022/11/15 09:52:03;;;;;;;45.07;28.07;;;12.30;91.30;;;;;;5034256;28;20214;-66
2022/11/15 09:54:38;;;;;;;43.77;27.43;;;12.40;91.30;;;;;;5022309;28;20262;-66
2022/11/15 09:57:44;;;;;;;41.20;27.47;;;12.40;91.30;;;;;;5037694;28;20206;-66
2022/11/15 10:00:38;;;;;;;47.57;29.03;;;12.50;91.20;;;;;;5019639;28;20627;-66
2022/11/15 10:03:28;;;;;;;47.80;27.23;;;12.50;91.20;;;;;;5017266;28;20195;-65
2022/11/15 10:06:00;;;;;;;47.20;30.33;;;12.60;91.20;;;;;;5020356;28;20293;-65
2022/11/15 10:08:36;;;;;;;46.20;28.53;;;12.60;91.10;;;;;;5019241;28;20647;-66
2022/11/15 10:11:14;;;;;;;45.10;30.07;;;12.60;91.10;;;;;;5023604;28;20547;-65
2022/11/15 10:14:19;;;;;;;46.40;30.57;;;12.70;91.00;;;;;;5021177;28;20289;-65
2022/11/15 10:16:56;;;;;;;47.00;29.27;;;12.70;91.00;;;;;;5026324;28;20276;-65
2022/11/15 10:19:32;;;;;;;49.73;29.70;;;12.70;91.00;;;;;;5023674;28;20282;-65
2022/11/15 10:22:04;;;;;;;50.57;29.20;;;12.70;91.00;;;;;;5019338;28;20302;-65
2022/11/15 10:24:39;;;;;;;44.77;28.43;;;12.70;90.90;;;;;;5018872;28;20211;-65
2022/11/15 10:27:15;;;;;;;46.83;28.60;;;12.70;90.90;;;;;;5020782;28;20244;-65
2022/11/15 10:29:48;;;;;;;47.77;29.00;;;12.80;90.80;;;;;;5022319;28;20206;-66
2022/11/15 10:32:19;;;;;;;44.77;28.13;;;12.80;90.80;;;;;;5023459;28;20551;-63
2022/11/15 10:34:48;;;;;;;47.73;28.67;;;12.80;90.70;;;;;;5020759;28;20198;-64
2022/11/15 10:37:28;;;;;;;46.13;29.70;;;12.70;90.40;;;;;;5022683;28;20203;-66
2022/11/15 10:40:24;;;;;;;46.13;28.93;;;12.70;90.50;;;;;;5019545;28;20216;-65
2022/11/15 10:43:10;;;;;;;47.47;30.97;;;12.70;90.60;;;;;;5020569;28;20593;-67
2022/11/15 10:45:38;;;;;;;51.13;31.13;;;12.70;90.60;;;;;;5021350;28;20217;-67
2022/11/15 10:48:14;;;;;;;47.17;31.13;;;12.80;90.60;;;;;;5018122;28;20232;-69
2022/11/15 10:50:46;;;;;;;48.73;30.00;;;12.70;90.70;;;;;;5029865;28;20619;-66
2022/11/15 10:53:41;;;;;;;49.93;29.77;;;12.80;90.60;;;;;;5022268;28;20228;-67
2022/11/15 10:56:15;;;;;;;51.73;30.00;;;12.80;90.70;;;;;;5018084;28;20231;-67
2022/11/15 10:58:49;;;;;;;48.00;30.00;;;12.80;90.70;;;;;;5022923;28;20222;-65
2022/11/15 11:01:23;;;;;;;45.43;29.47;;;12.80;90.70;;;;;;5023606;28;20267;-66
2022/11/15 11:04:09;;;;;;;47.63;30.77;;;12.80;90.70;;;;;;5022158;28;20242;-66
2022/11/15 11:06:53;;;;;;;50.97;32.03;;;12.90;90.80;;;;;;5024785;28;20219;-66
2022/11/15 11:09:28;;;;;;;57.13;31.70;;;12.90;90.70;;;;;;5021851;28;20203;-66
2022/11/15 11:11:55;;;;;;;50.13;31.13;;;12.90;90.70;;;;;;5023814;28;20205;-65
2022/11/15 11:14:27;;;;;;;47.40;30.10;;;12.90;90.80;;;;;;5018012;28;20241;-65
2022/11/15 11:17:11;;;;;;;45.47;30.17;;;12.90;90.80;;;;;;5022918;28;20264;-65
2022/11/15 11:20:07;;;;;;;50.47;29.83;;;12.90;90.80;;;;;;5019853;28;20227;-65
2022/11/15 11:22:59;;;;;;;48.37;31.37;;;12.90;90.80;;;;;;5020070;28;20481;-66
2022/11/15 11:26:00;;;;;;;55.00;30.80;;;12.90;90.80;;;;;;5027451;28;20213;-66
2022/11/15 11:28:43;;;;;;;49.10;29.77;;;12.90;90.80;;;;;;5011461;28;20666;-66
2022/11/15 11:31:20;;;;;;;54.10;30.57;;;12.90;90.80;;;;;;5018163;28;20187;-67
2022/11/15 11:34:24;;;;;;;47.83;29.50;;;12.90;90.80;;;;;;5024827;28;20279;-65
2022/11/15 11:37:09;;;;;;;45.10;29.43;;;12.90;91.20;;;;;;5007146;28;20605;-67
2022/11/15 11:40:19;;;;;;;49.43;29.67;;;13.00;90.90;;;;;;5023283;28;20599;-66
2022/11/15 11:43:04;;;;;;;52.03;30.77;;;13.00;90.90;;;;;;5017246;28;20203;-65
2022/11/15 11:45:34;;;;;;;45.43;29.57;;;13.00;90.90;;;;;;5024215;28;20209;-66
2022/11/15 11:48:13;;;;;;;50.00;30.80;;;13.00;90.90;;;;;;5021030;28;20624;-68
2022/11/15 11:50:42;;;;;;;47.63;30.97;;;13.00;90.90;;;;;;5026925;28;20501;-64
2022/11/15 11:53:15;;;;;;;53.67;30.40;;;13.00;90.90;;;;;;5020612;28;20263;-64
2022/11/15 11:55:41;;;;;;;50.47;30.73;;;13.10;90.90;;;;;;5024216;28;20205;-64
2022/11/15 11:58:21;;;;;;;50.73;31.30;;;13.10;90.80;;;;;;5025193;28;20223;-67
2022/11/15 12:00:53;;;;;;;53.47;32.13;;;13.10;90.90;;;;;;5028313;28;20206;-67
2022/11/15 12:03:45;;;;;;;48.53;30.17;;;13.10;91.00;;;;;;5025363;28;20198;-64
2022/11/15 12:06:28;;;;;;;51.03;30.43;;;13.10;91.00;;;;;;5021587;28;20215;-65
2022/11/15 12:09:21;;;;;;;43.27;28.73;;;13.10;90.90;;;;;;5028147;28;20194;-64
2022/11/15 12:12:16;;;;;;;53.97;31.80;;;13.10;90.80;;;;;;5023072;28;20235;-63
2022/11/15 12:14:47;;;;;;;52.47;31.73;;;13.00;90.80;;;;;;5048212;28;20604;-64
2022/11/15 12:17:17;;;;;;;47.10;30.57;;;13.00;90.90;;;;;;5026284;28;20265;-65
2022/11/15 12:19:45;;;;;;;55.90;32.93;;;13.00;91.00;;;;;;5023834;28;20574;-66
2022/11/15 12:22:42;;;;;;;46.63;30.57;;;13.00;91.00;;;;;;5026260;28;20797;-64
2022/11/15 12:25:29;;;;;;;53.80;32.60;;;13.00;91.10;;;;;;5023679;28;20205;-65
2022/11/15 12:28:10;;;;;;;51.27;32.83;;;13.00;91.10;;;;;;5020233;28;20214;-69
2022/11/15 12:30:56;;;;;;;50.40;31.97;;;13.10;91.20;;;;;;5024820;28;20210;-64
2022/11/15 12:33:43;;;;;;;54.37;31.90;;;13.10;91.20;;;;;;5027766;28;20584;-66
2022/11/15 12:36:22;;;;;;;52.33;31.10;;;13.10;91.20;;;;;;5018671;28;20263;-65
2022/11/15 12:38:54;;;;;;;48.50;30.27;;;13.20;91.30;;;;;;5018452;28;20207;-67
2022/11/15 12:41:24;;;;;;;51.47;32.50;;;13.20;91.40;;;;;;5057713;28;20283;-68
2022/11/15 12:43:52;;;;;;;50.70;32.53;;;13.30;91.40;;;;;;5024096;28;20669;-65
2022/11/15 12:46:20;;;;;;;51.33;33.10;;;13.30;91.40;;;;;;5026957;28;20237;-64
2022/11/15 12:48:53;;;;;;;54.30;32.13;;;13.40;91.40;;;;;;5022724;28;20195;-64
2022/11/15 12:51:40;;;;;;;46.37;30.20;;;13.40;91.20;;;;;;5024279;28;20576;-67
2022/11/15 12:54:22;;;;;;;56.33;31.20;;;13.30;91.00;;;;;;5023719;28;20202;-66
2022/11/15 12:57:15;;;;;;;49.00;31.53;;;13.30;91.00;;;;;;5020475;28;20201;-66
2022/11/15 12:59:58;;;;;;;53.87;31.53;;;13.30;91.00;;;;;;5019829;28;20213;-67
2022/11/15 13:02:34;;;;;;;51.83;31.87;;;13.20;91.00;;;;;;5023232;28;20209;-68
2022/11/15 13:05:14;;;;;;;50.77;31.47;;;13.10;90.90;;;;;;5023105;28;20198;-67
2022/11/15 13:07:41;;;;;;;54.03;33.33;;;13.10;91.10;;;;;;5025563;28;20727;-68
2022/11/15 13:10:32;;;;;;;50.93;31.70;;;13.10;91.20;;;;;;5017231;28;20661;-68
2022/11/15 13:13:00;;;;;;;54.13;32.83;;;13.10;91.40;;;;;;5024738;28;20203;-68
2022/11/15 13:15:54;;;;;;;53.20;33.73;;;13.10;91.50;;;;;;5055693;28;20534;-67
2022/11/15 13:18:32;;;;;;;57.93;33.83;;;13.10;91.50;;;;;;5018805;28;20230;-67
2022/11/15 13:22:50;;;;;;;53.00;34.00;;;13.00;91.60;;;;;;5023805;28;20195;-68
2022/11/15 13:23:55;;;;;;;54.87;34.00;;;13.00;91.60;;;;;;5022435;28;20242;-68
2022/11/15 13:26:22;;;;;;;55.73;32.13;;;13.00;91.70;;;;;;5016846;28;20227;-68
2022/11/15 13:28:54;;;;;;;52.97;31.50;;;13.00;91.70;;;;;;5016348;28;20253;-68
2022/11/15 13:31:25;;;;;;;53.10;33.77;;;13.00;91.80;;;;;;5019344;28;20261;-68
2022/11/15 13:33:55;;;;;;;51.57;32.17;;;13.00;91.90;;;;;;5025277;28;20203;-67
2022/11/15 13:36:29;;;;;;;60.97;34.13;;;13.00;91.90;;;;;;5019078;28;20260;-67
2022/11/15 13:39:04;;;;;;;57.00;34.23;;;13.00;91.90;;;;;;5024705;28;20232;-67
2022/11/15 13:41:33;;;;;;;59.10;32.67;;;13.00;92.10;;;;;;5022317;28;20525;-67
2022/11/15 13:44:03;;;;;;;62.23;35.73;;;13.00;92.10;;;;;;5019196;28;20209;-67
2022/11/15 13:46:34;;;;;;;56.00;33.33;;;13.00;92.30;;;;;;5023944;28;20685;-68
2022/11/15 13:49:03;;;;;;;61.67;35.53;;;13.00;92.40;;;;;;5021822;28;20220;-68
2022/11/15 13:51:54;;;;;;;59.63;36.53;;;12.90;92.40;;;;;;5022710;28;20198;-67
2022/11/15 13:54:43;;;;;;;63.60;36.23;;;12.90;92.50;;;;;;5026091;28;20278;-65
2022/11/15 13:57:22;;;;;;;62.03;36.83;;;12.90;92.60;;;;;;5023679;28;20193;-67
2022/11/15 13:59:53;;;;;;;63.50;36.20;;;12.90;92.70;;;;;;5026127;28;20534;-67
2022/11/15 14:02:40;;;;;;;62.13;36.30;;;12.90;92.80;;;;;;5022967;28;20214;-69
2022/11/15 14:05:21;;;;;;;67.43;37.97;;;12.90;92.80;;;;;;5022160;28;20199;-69
2022/11/15 14:08:01;;;;;;;61.67;36.50;;;12.90;92.90;;;;;;5022040;28;20224;-65
2022/11/15 14:10:37;;;;;;;61.60;36.47;;;12.80;93.00;;;;;;5023287;28;20215;-66
2022/11/15 14:13:11;;;;;;;66.83;36.10;;;12.80;93.10;;;;;;5024302;28;20266;-68
2022/11/15 14:15:39;;;;;;;63.37;35.63;;;12.80;93.20;;;;;;5021454;28;20637;-69
2022/11/15 14:18:06;;;;;;;61.73;37.00;;;12.80;93.20;;;;;;5016376;28;20251;-66